Time;durP1;ratioP1;P1;durP2;ratioP2;P2;SDS_P1;SDS_P2;PMS_P1;PMS_P2;Temp;Humidity;BMP_temperature;BMP_pressure;BME280_temperature;BME280_humidity;BME280_pressure;Samples;Min_cycle;Max_cycle;Signal;HPM_P1;HPM_P2
2022/12/08 00:01:33;;;;;;;47.05;21.88;;;;;;;3.93;100.00;97469.56;5046750;28;20032;-79
2022/12/08 00:04:00;;;;;;;51.25;20.50;;;;;;;4.04;100.00;97487.69;5046816;28;20031;-81
2022/12/08 00:09:33;;;;;;;55.50;22.35;;;;;;;4.12;100.00;97498.88;5049285;28;20546;-80
2022/12/08 00:12:01;;;;;;;54.03;20.70;;;;;;;4.04;100.00;97480.63;5061152;28;20465;-80
2022/12/08 00:14:30;;;;;;;103.88;21.67;;;;;;;4.13;100.00;97503.22;5042559;28;20043;-81
2022/12/08 00:16:56;;;;;;;63.47;22.75;;;;;;;4.17;100.00;97507.50;5039483;28;20052;-79
2022/12/08 00:19:22;;;;;;;83.72;21.55;;;;;;;4.23;100.00;97513.41;5040549;28;20035;-80
2022/12/08 00:21:48;;;;;;;67.70;21.33;;;;;;;4.27;100.00;97514.19;5063432;28;20024;-80
2022/12/08 00:24:14;;;;;;;84.43;24.30;;;;;;;4.09;100.00;97477.81;5054816;28;20127;-80
2022/12/08 00:26:40;;;;;;;51.20;17.88;;;;;;;4.39;100.00;97519.00;5046037;28;20090;-81
2022/12/08 00:29:06;;;;;;;63.65;18.27;;;;;;;4.30;100.00;97504.34;5066659;28;20476;-80
2022/12/08 00:31:31;;;;;;;64.40;16.60;;;;;;;4.42;100.00;97520.66;5059202;28;20021;-80
2022/12/08 00:33:57;;;;;;;102.03;32.13;;;;;;;4.46;100.00;97522.28;5043975;28;20056;-81
2022/12/08 00:36:23;;;;;;;55.80;16.98;;;;;;;4.47;100.00;97513.41;5049234;28;20105;-80
2022/12/08 00:38:48;;;;;;;51.35;18.50;;;;;;;4.38;100.00;97509.31;5042628;28;20091;-80
2022/12/08 00:41:16;;;;;;;57.60;16.95;;;;;;;4.56;100.00;97535.09;5041230;28;20025;-81
2022/12/08 00:43:42;;;;;;;67.38;16.25;;;;;;;4.49;100.00;97523.00;5050153;28;20510;-81
2022/12/08 00:46:08;;;;;;;55.17;15.82;;;;;;;4.73;100.00;97542.41;5065276;28;20017;-81
2022/12/08 00:48:33;;;;;;;77.55;15.02;;;;;;;4.63;100.00;97518.06;5054110;28;20056;-81
2022/12/08 00:50:59;;;;;;;42.30;14.55;;;;;;;4.72;100.00;97519.47;5037571;28;20055;-81
2022/12/08 00:53:24;;;;;;;40.90;12.88;;;;;;;4.60;100.00;97493.47;5069708;28;20028;-80
2022/12/08 00:55:50;;;;;;;32.20;12.48;;;;;;;4.84;100.00;97519.84;5044049;28;20029;-81
2022/12/08 00:58:16;;;;;;;34.17;12.82;;;;;;;4.57;100.00;97483.00;5039442;28;20162;-81
2022/12/08 01:00:42;;;;;;;33.78;12.68;;;;;;;4.71;100.00;97492.13;5043574;28;20032;-81
2022/12/08 01:03:11;;;;;;;33.55;13.02;;;;;;;4.86;100.00;97506.56;5043412;28;20082;-80
2022/12/08 01:05:37;;;;;;;42.13;14.23;;;;;;;4.77;100.00;97480.41;5041409;28;20156;-80
2022/12/08 01:08:07;;;;;;;32.13;12.55;;;;;;;5.03;100.00;97513.81;5052306;28;20036;-80
2022/12/08 01:10:37;;;;;;;30.35;12.05;;;;;;;4.89;100.00;97483.44;5058610;28;20025;-81
2022/12/08 01:13:02;;;;;;;31.80;12.18;;;;;;;4.91;100.00;97493.97;5034585;28;20477;-81
2022/12/08 01:15:28;;;;;;;36.13;12.07;;;;;;;4.76;100.00;97499.91;5036417;28;20128;-80
2022/12/08 01:17:55;;;;;;;44.72;15.45;;;;;;;4.71;100.00;97497.41;5040734;28;20041;-81
2022/12/08 01:20:21;;;;;;;38.78;12.98;;;;;;;4.70;100.00;97519.56;5058692;28;20043;-81
2022/12/08 01:22:46;;;;;;;39.97;13.85;;;;;;;4.78;100.00;97527.19;5049171;28;20503;-80
2022/12/08 01:25:12;;;;;;;43.97;14.07;;;;;;;4.80;100.00;97525.31;5048709;28;20076;-82
2022/12/08 01:27:37;;;;;;;40.70;13.90;;;;;;;4.77;100.00;97522.78;5042266;28;20116;-80
2022/12/08 01:30:04;;;;;;;83.78;13.65;;;;;;;4.37;100.00;97492.56;5044629;28;20060;-80
2022/12/08 01:32:29;;;;;;;45.35;13.77;;;;;;;4.61;100.00;97511.09;5039614;28;20542;-80
2022/12/08 01:34:55;;;;;;;51.83;14.60;;;;;;;4.55;100.00;97506.91;5065270;28;20040;-80
2022/12/08 01:37:20;;;;;;;46.15;14.45;;;;;;;4.64;100.00;97521.56;5040936;28;20028;-80
2022/12/08 01:39:46;;;;;;;44.97;15.68;;;;;;;4.68;100.00;97510.78;5035841;28;20032;-80
2022/12/08 01:42:22;;;;;;;36.97;16.13;;;;;;;4.62;100.00;97511.03;5036588;28;20029;-78
2022/12/08 01:44:57;;;;;;;40.00;16.00;;;;;;;4.68;100.00;97524.03;5053337;28;20508;-79
2022/12/08 01:47:25;;;;;;;37.17;13.57;;;;;;;4.77;100.00;97528.97;5039052;28;20029;-79
2022/12/08 01:49:51;;;;;;;31.63;13.80;;;;;;;4.83;100.00;97520.78;5044360;28;20036;-79
2022/12/08 01:52:28;;;;;;;30.92;12.73;;;;;;;4.94;100.00;97525.66;5033371;28;20043;-80
2022/12/08 01:55:18;;;;;;;32.05;11.70;;;;;;;5.02;100.00;97523.56;5043923;28;20036;-80
2022/12/08 01:57:48;;;;;;;21.20;8.73;;;;;;;4.99;100.00;97501.59;5041756;28;20113;-80
2022/12/08 02:00:16;;;;;;;23.55;8.75;;;;;;;4.88;100.00;97484.38;5046160;28;20113;-80
2022/12/08 02:02:55;;;;;;;22.70;9.25;;;;;;;4.94;100.00;97488.56;5043721;28;20501;-80
2022/12/08 02:05:24;;;;;;;21.13;8.90;;;;;;;4.95;100.00;97487.66;5039807;28;20507;-81
2022/12/08 02:07:50;;;;;;;18.85;8.60;;;;;;;4.85;100.00;97495.09;5042678;28;20115;-80
2022/12/08 02:10:19;;;;;;;19.02;7.90;;;;;;;4.96;100.00;97491.13;5032834;28;20502;-80
2022/12/08 02:12:46;;;;;;;19.40;8.25;;;;;;;4.87;100.00;97487.06;5041428;28;20036;-79
2022/12/08 02:15:12;;;;;;;22.30;9.20;;;;;;;4.90;100.00;97481.66;5061068;28;20035;-79
2022/12/08 02:17:56;;;;;;;25.48;10.55;;;;;;;4.95;100.00;97478.81;5037432;28;20040;-79
2022/12/08 02:20:24;;;;;;;26.13;9.90;;;;;;;5.18;100.00;97498.16;5054195;28;20039;-80
2022/12/08 02:23:03;;;;;;;24.52;10.88;;;;;;;5.18;100.00;97479.59;5056430;28;20028;-80
2022/12/08 02:25:56;;;;;;;22.75;9.38;;;;;;;5.09;100.00;97477.31;5068907;28;20090;-80
2022/12/08 02:28:24;;;;;;;24.35;9.65;;;;;;;5.20;100.00;97490.16;5069570;28;20025;-80
2022/12/08 02:31:02;;;;;;;25.83;10.00;;;;;;;5.22;100.00;97496.25;5070769;28;20476;-79
2022/12/08 02:33:37;;;;;;;24.42;11.13;;;;;;;5.21;100.00;97492.72;5059406;28;20029;-79
2022/12/08 02:36:18;;;;;;;28.23;10.82;;;;;;;5.18;100.00;97497.28;5053273;28;20451;-79
2022/12/08 02:39:11;;;;;;;25.10;10.27;;;;;;;5.18;100.00;97491.97;5050621;28;20078;-80
2022/12/08 02:41:48;;;;;;;27.58;10.65;;;;;;;5.24;100.00;97504.97;5057908;28;20020;-80
2022/12/08 02:44:47;;;;;;;32.03;11.52;;;;;;;5.23;100.00;97500.63;5062583;28;20031;-79
2022/12/08 02:47:16;;;;;;;34.33;12.70;;;;;;;5.17;100.00;97496.41;5034328;28;20401;-79
2022/12/08 02:49:41;;;;;;;33.10;12.15;;;;;;;5.10;100.00;97483.50;5037368;28;20032;-79
2022/12/08 02:52:28;;;;;;;29.90;11.50;;;;;;;5.25;100.00;97499.63;5068216;28;20040;-79
2022/12/08 02:55:02;;;;;;;47.67;14.18;;;;;;;5.15;100.00;97492.09;5053150;28;20129;-81
2022/12/08 02:58:04;;;;;;;38.17;14.85;;;;;;;5.10;100.00;97484.38;5070272;28;20025;-83
2022/12/08 03:00:45;;;;;;;31.80;13.45;;;;;;;5.18;100.00;97495.50;5037798;28;20025;-79
2022/12/08 03:03:38;;;;;;;37.92;13.98;;;;;;;5.27;100.00;97499.56;5061080;28;20017;-80
2022/12/08 03:06:08;;;;;;;38.60;13.75;;;;;;;5.24;100.00;97508.50;5056877;28;20049;-79
2022/12/08 03:08:44;;;;;;;33.15;13.20;;;;;;;5.17;100.00;97484.97;5052273;28;20055;-79
2022/12/08 03:11:22;;;;;;;30.95;13.68;;;;;;;5.12;100.00;97489.59;5038584;28;20471;-79
2022/12/08 03:13:55;;;;;;;28.13;11.80;;;;;;;5.08;100.00;97491.50;5064794;28;20040;-80
2022/12/08 03:16:24;;;;;;;30.27;12.63;;;;;;;5.10;100.00;97494.09;5062041;28;20049;-78
2022/12/08 03:19:02;;;;;;;28.38;12.45;;;;;;;5.09;100.00;97487.94;5048435;28;20512;-79
2022/12/08 03:21:28;;;;;;;33.28;12.85;;;;;;;5.13;100.00;97472.75;5038364;28;20031;-79
2022/12/08 03:23:56;;;;;;;33.83;12.82;;;;;;;5.06;100.00;97455.38;5043038;28;20020;-79
2022/12/08 03:26:30;;;;;;;34.45;12.45;;;;;;;5.22;100.00;97477.69;5070421;28;20550;-78
2022/12/08 03:28:56;;;;;;;32.75;13.52;;;;;;;5.09;100.00;97472.03;5038009;28;20100;-79
2022/12/08 03:31:24;;;;;;;35.65;12.77;;;;;;;5.11;100.00;97477.25;5052748;28;20078;-79
2022/12/08 03:33:51;;;;;;;37.53;11.93;;;;;;;5.25;100.00;97488.16;5047225;28;20027;-79
2022/12/08 03:36:17;;;;;;;31.15;12.02;;;;;;;5.18;100.00;97476.06;5046433;28;20511;-78
2022/12/08 03:38:44;;;;;;;31.20;11.85;;;;;;;5.18;100.00;97482.25;5063558;28;20484;-79
2022/12/08 03:41:19;;;;;;;45.55;11.60;;;;;;;5.19;100.00;97485.75;5045522;28;20072;-80
2022/12/08 03:43:47;;;;;;;31.67;11.73;;;;;;;5.23;100.00;97484.72;5040696;28;20027;-79
2022/12/08 03:46:14;;;;;;;25.33;10.13;;;;;;;5.21;100.00;97487.41;5047775;28;20115;-80
2022/12/08 03:48:40;;;;;;;25.60;9.98;;;;;;;5.17;100.00;97485.81;5037632;28;20098;-79
2022/12/08 03:51:05;;;;;;;29.05;10.43;;;;;;;5.22;100.00;97482.97;5043254;28;20484;-80
2022/12/08 03:53:31;;;;;;;34.00;12.13;;;;;;;5.31;100.00;97493.19;5042813;28;20108;-80
2022/12/08 03:55:56;;;;;;;23.38;10.65;;;;;;;5.22;100.00;97489.16;5040152;28;20081;-80
2022/12/08 03:58:22;;;;;;;27.15;9.82;;;;;;;5.25;100.00;97501.41;5044590;28;20082;-78
2022/12/08 04:00:48;;;;;;;38.78;12.80;;;;;;;5.26;100.00;97506.63;5045108;28;20029;-79
2022/12/08 04:03:13;;;;;;;42.80;13.38;;;;;;;5.26;100.00;97503.16;5038319;28;20029;-80
2022/12/08 04:05:39;;;;;;;54.10;13.70;;;;;;;5.13;100.00;97488.66;5065901;28;20021;-80
2022/12/08 04:08:04;;;;;;;36.13;11.93;;;;;;;5.15;100.00;97497.41;5058883;28;20024;-80
2022/12/08 04:10:30;;;;;;;56.03;11.98;;;;;;;5.02;100.00;97504.13;5061526;28;20032;-80
2022/12/08 04:12:56;;;;;;;34.55;11.98;;;;;;;4.85;100.00;97495.09;5069806;28;20028;-80
2022/12/08 04:15:22;;;;;;;38.90;13.73;;;;;;;5.13;100.00;97516.03;5054443;28;20508;-81
2022/12/08 04:17:47;;;;;;;33.50;12.25;;;;;;;5.13;100.00;97516.03;5049665;28;20032;-80
2022/12/08 04:20:13;;;;;;;37.25;11.88;;;;;;;5.11;100.00;97524.97;5042991;28;20165;-80
2022/12/08 04:22:38;;;;;;;26.85;10.13;;;;;;;5.12;100.00;97524.03;5054616;28;20066;-80
2022/12/08 04:25:04;;;;;;;29.40;10.63;;;;;;;4.98;100.00;97499.91;5047699;28;20024;-80
2022/12/08 04:27:30;;;;;;;27.23;11.05;;;;;;;5.11;100.00;97527.59;5043714;28;20401;-80
2022/12/08 04:29:56;;;;;;;34.45;11.25;;;;;;;5.10;100.00;97521.47;5062385;28;20013;-80
2022/12/08 04:32:21;;;;;;;32.78;12.10;;;;;;;5.15;100.00;97539.81;5051347;28;20063;-79
2022/12/08 04:34:47;;;;;;;28.88;11.90;;;;;;;5.17;100.00;97532.69;5044418;28;20028;-80
2022/12/08 04:37:12;;;;;;;36.72;11.02;;;;;;;5.00;100.00;97516.59;5042367;28;20024;-80
2022/12/08 04:39:38;;;;;;;26.25;10.80;;;;;;;5.16;100.00;97537.13;5058988;28;20032;-80
2022/12/08 04:42:03;;;;;;;31.25;11.95;;;;;;;5.20;100.00;97535.22;5056615;28;20450;-80
2022/12/08 04:44:29;;;;;;;32.60;13.50;;;;;;;5.11;100.00;97517.88;5035965;28;20111;-79
2022/12/08 04:46:55;;;;;;;33.20;13.23;;;;;;;5.17;100.00;97522.94;5063979;28;20025;-79
2022/12/08 04:49:20;;;;;;;36.63;14.38;;;;;;;5.25;100.00;97535.88;5064153;28;20029;-80
2022/12/08 04:51:46;;;;;;;30.00;11.50;;;;;;;5.25;100.00;97538.53;5048745;28;20405;-80
2022/12/08 04:54:12;;;;;;;38.65;10.35;;;;;;;5.21;100.00;97531.63;5060431;28;20090;-82
2022/12/08 04:56:37;;;;;;;46.80;10.52;;;;;;;5.00;100.00;97508.63;5036196;28;20040;-81
2022/12/08 04:59:03;;;;;;;36.83;10.90;;;;;;;5.12;100.00;97524.03;5044105;28;20032;-82
2022/12/08 05:01:29;;;;;;;54.65;11.77;;;;;;;5.16;100.00;97530.97;5048529;28;20211;-82
2022/12/08 05:03:54;;;;;;;68.00;12.40;;;;;;;5.05;100.00;97526.06;5049497;28;20051;-82
2022/12/08 05:06:20;;;;;;;29.83;11.52;;;;;;;5.08;100.00;97527.72;5057532;28;20056;-81
2022/12/08 05:08:46;;;;;;;35.00;12.02;;;;;;;5.04;100.00;97513.78;5053193;28;20025;-81
2022/12/08 05:11:12;;;;;;;28.42;10.73;;;;;;;4.86;100.00;97502.09;5043386;28;20021;-81
2022/12/08 05:13:38;;;;;;;25.95;11.80;;;;;;;5.08;100.00;97538.34;5050097;28;20036;-81
2022/12/08 05:16:13;;;;;;;47.15;12.65;;;;;;;4.97;100.00;97536.13;5070701;28;20040;-81
2022/12/08 05:18:39;;;;;;;32.83;10.88;;;;;;;4.84;100.00;97527.81;5039606;28;20040;-82
2022/12/08 05:21:05;;;;;;;23.10;10.55;;;;;;;4.89;100.00;97547.03;5060765;28;20049;-81
2022/12/08 05:23:31;;;;;;;63.95;11.15;;;;;;;5.06;100.00;97561.41;5066544;28;20028;-82
2022/12/08 05:25:57;;;;;;;26.52;10.45;;;;;;;5.06;100.00;97550.81;5043290;28;20033;-82
2022/12/08 05:28:23;;;;;;;33.10;10.48;;;;;;;5.07;100.00;97550.75;5038662;28;20029;-82
2022/12/08 05:30:48;;;;;;;26.05;10.10;;;;;;;4.79;100.00;97516.53;5050847;28;20111;-82
2022/12/08 05:33:14;;;;;;;26.33;10.23;;;;;;;4.98;100.00;97544.97;5041920;28;20123;-74
2022/12/08 05:35:40;;;;;;;24.95;10.38;;;;;;;5.05;100.00;97554.38;5042607;28;20025;-81
2022/12/08 05:38:06;;;;;;;30.45;12.57;;;;;;;5.14;100.00;97561.94;5037816;28;20120;-82
2022/12/08 05:40:32;;;;;;;36.88;12.00;;;;;;;5.03;100.00;97546.50;5046075;28;20416;-80
2022/12/08 05:42:57;;;;;;;36.35;12.75;;;;;;;4.97;100.00;97556.47;5056861;28;20025;-81
2022/12/08 05:45:23;;;;;;;45.13;13.93;;;;;;;4.90;100.00;97540.81;5040647;28;20033;-81
2022/12/08 05:47:49;;;;;;;44.42;15.30;;;;;;;4.88;100.00;97561.22;5055597;28;20025;-82
2022/12/08 05:50:14;;;;;;;49.67;19.33;;;;;;;5.07;100.00;97569.31;5065689;28;20029;-82
2022/12/08 05:52:40;;;;;;;65.05;24.05;;;;;;;5.02;100.00;97588.94;5036560;28;20021;-81
2022/12/08 05:55:06;;;;;;;76.60;27.35;;;;;;;4.69;100.00;97551.38;5045008;28;20020;-81
2022/12/08 05:57:31;;;;;;;63.38;25.92;;;;;;;4.97;100.00;97593.56;5067673;28;20028;-81
2022/12/08 05:59:58;;;;;;;72.05;27.35;;;;;;;5.01;100.00;97589.88;5074908;28;20029;-81
2022/12/08 06:02:25;;;;;;;75.75;24.95;;;;;;;4.74;100.00;97574.13;5042604;28;20503;-81
2022/12/08 06:04:50;;;;;;;50.33;18.23;;;;;;;4.69;100.00;97565.50;5050846;28;20029;-82
2022/12/08 06:07:16;;;;;;;55.50;15.55;;;;;;;4.81;100.00;97583.56;5049942;28;20119;-82
2022/12/08 06:09:42;;;;;;;44.95;14.98;;;;;;;4.71;100.00;97576.03;5064851;28;20480;-81
2022/12/08 06:12:10;;;;;;;66.68;16.40;;;;;;;4.75;100.00;97575.88;5074362;28;20041;-81
2022/12/08 06:14:37;;;;;;;46.08;15.10;;;;;;;4.54;100.00;97563.44;5047158;28;20055;-81
2022/12/08 06:17:03;;;;;;;46.30;15.65;;;;;;;4.49;100.00;97549.50;5054530;28;20041;-81
2022/12/08 06:19:29;;;;;;;38.13;14.00;;;;;;;4.59;100.00;97566.75;5056103;28;20065;-81
2022/12/08 06:22:06;;;;;;;41.83;14.32;;;;;;;4.89;100.00;97610.63;5062509;28;20033;-85
2022/12/08 06:24:31;;;;;;;81.80;18.55;;;;;;;4.56;100.00;97580.13;5059718;28;20408;-85
2022/12/08 06:26:57;;;;;;;107.75;17.85;;;;;;;4.49;100.00;97570.66;5043615;28;20029;-86
2022/12/08 06:29:22;;;;;;;74.10;18.67;;;;;;;4.62;100.00;97603.72;5052894;28;20494;-86
2022/12/08 06:31:48;;;;;;;61.30;18.50;;;;;;;4.67;100.00;97591.19;5054927;28;20029;-85
2022/12/08 06:34:13;;;;;;;111.00;22.83;;;;;;;4.63;100.00;97573.69;5062167;28;20035;-85
2022/12/08 06:36:39;;;;;;;168.38;36.45;;;;;;;4.84;100.00;97594.06;5049664;28;20074;-86
2022/12/08 06:39:05;;;;;;;122.13;38.83;;;;;;;4.96;100.00;97613.03;5047898;28;20032;-86
2022/12/08 06:41:30;;;;;;;150.52;37.55;;;;;;;5.10;100.00;97606.31;5048665;28;20028;-87
2022/12/08 06:43:56;;;;;;;133.05;37.78;;;;;;;5.02;100.00;97576.56;5044302;28;20029;-87
2022/12/08 06:46:22;;;;;;;93.43;30.73;;;;;;;5.03;100.00;97578.28;5047413;28;20036;-86
2022/12/08 06:48:49;;;;;;;86.13;30.00;;;;;;;5.32;100.00;97591.25;5066334;28;20028;-87
2022/12/08 06:51:21;;;;;;;72.15;26.73;;;;;;;5.41;100.00;97590.88;5042210;28;20033;-84
2022/12/08 06:53:47;;;;;;;65.88;24.45;;;;;;;5.39;100.00;97573.28;5046986;28;20060;-86
2022/12/08 06:56:14;;;;;;;74.50;22.40;;;;;;;5.24;100.00;97560.66;5067070;28;20112;-85
2022/12/08 06:58:40;;;;;;;45.97;17.55;;;;;;;5.31;100.00;97540.94;5053537;28;20029;-86
2022/12/08 07:01:08;;;;;;;39.72;14.07;;;;;;;5.63;100.00;97568.78;5072817;28;20024;-85
2022/12/08 07:03:35;;;;;;;65.35;14.80;;;;;;;5.45;100.00;97559.78;5051173;28;20115;-84
2022/12/08 07:06:00;;;;;;;62.28;17.25;;;;;;;5.19;100.00;97509.63;5047684;28;20107;-85
2022/12/08 07:08:26;;;;;;;52.03;16.05;;;;;;;5.27;100.00;97512.81;5058384;28;20515;-84
2022/12/08 07:10:52;;;;;;;47.38;16.40;;;;;;;5.28;100.00;97522.50;5060037;28;20115;-85
2022/12/08 07:13:17;;;;;;;45.42;16.33;;;;;;;5.41;100.00;97547.59;5051505;28;20032;-85
2022/12/08 07:15:43;;;;;;;61.90;16.80;;;;;;;5.31;100.00;97540.94;5053290;28;20075;-85
2022/12/08 07:18:09;;;;;;;47.33;17.00;;;;;;;5.39;100.00;97538.81;5046866;28;20040;-85
2022/12/08 07:20:34;;;;;;;73.97;19.05;;;;;;;5.65;100.00;97551.00;5067778;28;20053;-86
2022/12/08 07:23:00;;;;;;;60.63;21.65;;;;;;;5.93;100.00;97538.31;5053378;28;20028;-85
2022/12/08 07:25:25;;;;;;;65.22;21.67;;;;;;;5.99;100.00;97533.59;5045059;28;20024;-86
2022/12/08 07:27:52;;;;;;;86.85;23.20;;;;;;;6.17;100.00;97549.63;5070481;28;20028;-87
2022/12/08 07:30:18;;;;;;;54.47;20.85;;;;;;;6.04;100.00;97535.16;5059865;28;20046;-84
2022/12/08 07:32:44;;;;;;;63.25;23.20;;;;;;;6.26;100.00;97543.91;5051902;28;20029;-85
2022/12/08 07:35:10;;;;;;;62.25;22.65;;;;;;;6.13;100.00;97522.34;5057035;28;20456;-85
2022/12/08 07:37:36;;;;;;;62.05;21.42;;;;;;;6.16;100.00;97524.00;5055690;28;20021;-84
2022/12/08 07:40:20;;;;;;;54.40;21.00;;;;;;;6.26;100.00;97533.28;5054371;28;20456;-86
2022/12/08 07:42:58;;;;;;;55.03;21.92;;;;;;;6.14;100.00;97496.66;5041137;28;20040;-87
2022/12/08 07:45:33;;;;;;;41.50;14.43;;;;;;;6.66;100.00;97564.19;5074195;28;20092;-86
2022/12/08 07:47:59;;;;;;;48.20;16.65;;;;;;;6.47;100.00;97503.94;5049404;28;20075;-86
2022/12/08 07:50:26;;;;;;;74.03;18.35;;;;;;;6.72;100.00;97503.66;5048467;28;20033;-86
2022/12/08 07:52:51;;;;;;;51.20;16.70;;;;;;;6.82;100.00;97485.47;5058724;28;20029;-87
2022/12/08 07:55:17;;;;;;;42.92;17.33;;;;;;;6.97;100.00;97485.59;5057098;28;20476;-86
2022/12/08 07:57:43;;;;;;;46.90;16.70;;;;;;;7.23;100.00;97515.38;5058952;28;20028;-86
2022/12/08 08:00:14;;;;;;;51.25;18.00;;;;;;;6.97;100.00;97471.44;5048315;28;20031;-86
2022/12/08 08:02:40;;;;;;;48.93;17.40;;;;;;;7.06;100.00;97477.16;5067321;28;20119;-85
2022/12/08 08:05:06;;;;;;;48.55;18.92;;;;;;;7.39;100.00;97508.34;5061101;28;20044;-86
2022/12/08 08:07:32;;;;;;;70.18;24.13;;;;;;;6.93;100.00;97467.19;5047621;28;20021;-85
2022/12/08 08:09:58;;;;;;;75.40;25.83;;;;;;;6.88;100.00;97455.94;5067154;28;20054;-85
2022/12/08 08:12:23;;;;;;;70.57;25.73;;;;;;;7.02;100.00;97477.38;5062572;28;20056;-85
2022/12/08 08:14:49;;;;;;;73.38;26.48;;;;;;;7.07;100.00;97464.75;5061373;28;20096;-86
2022/12/08 08:17:15;;;;;;;70.50;25.60;;;;;;;6.60;100.00;97443.13;5060458;28;20056;-86
2022/12/08 08:19:40;;;;;;;72.88;28.08;;;;;;;6.73;100.00;97452.22;5060845;28;20067;-86
2022/12/08 08:22:06;;;;;;;75.50;25.23;;;;;;;6.86;100.00;97477.25;5061635;28;20488;-86
2022/12/08 08:24:32;;;;;;;75.38;24.83;;;;;;;6.75;100.00;97454.81;5058154;28;20021;-86
2022/12/08 08:26:57;;;;;;;62.97;22.55;;;;;;;6.85;100.00;97443.66;5063824;28;20031;-85
2022/12/08 08:29:23;;;;;;;64.10;24.05;;;;;;;6.80;100.00;97444.81;5060972;28;20019;-86
2022/12/08 08:31:52;;;;;;;51.70;21.52;;;;;;;6.73;100.00;97430.97;5057453;28;20021;-86
2022/12/08 08:34:18;;;;;;;54.03;21.08;;;;;;;6.59;100.00;97428.09;5053488;28;20029;-85
2022/12/08 08:36:43;;;;;;;49.85;21.00;;;;;;;6.64;100.00;97454.47;5042032;28;20028;-86
2022/12/08 08:39:09;;;;;;;42.70;18.30;;;;;;;6.63;100.00;97445.63;5044479;28;20029;-85
2022/12/08 08:41:35;;;;;;;60.15;21.60;;;;;;;6.53;100.00;97441.69;5056587;28;20123;-85
2022/12/08 08:44:00;;;;;;;43.03;17.50;;;;;;;6.54;100.00;97438.09;5067952;28;20044;-84
2022/12/08 08:46:26;;;;;;;43.13;14.88;;;;;;;6.53;100.00;97442.53;5056853;28;20028;-85
2022/12/08 08:48:51;;;;;;;48.03;16.63;;;;;;;6.63;100.00;97442.97;5049630;28;20029;-86
2022/12/08 08:51:17;;;;;;;46.60;17.15;;;;;;;6.82;100.00;97443.81;5053148;28;20139;-85
2022/12/08 08:53:43;;;;;;;59.03;22.52;;;;;;;6.73;100.00;97430.09;5053574;28;20082;-85
2022/12/08 08:56:10;;;;;;;62.00;22.35;;;;;;;6.63;100.00;97427.03;5039434;28;20108;-85
2022/12/08 08:58:36;;;;;;;61.85;26.20;;;;;;;6.64;100.00;97438.53;5039563;28;20033;-87
2022/12/08 09:01:01;;;;;;;59.00;23.17;;;;;;;6.63;100.00;97444.75;5056439;28;20040;-85
2022/12/08 09:03:27;;;;;;;54.33;21.80;;;;;;;6.33;100.00;97424.03;5039148;28;20025;-85
2022/12/08 09:05:59;;;;;;;49.47;20.85;;;;;;;6.44;100.00;97453.59;5040151;28;20028;-84
2022/12/08 09:08:25;;;;;;;52.28;20.92;;;;;;;6.60;100.00;97453.75;5057333;28;20013;-85
2022/12/08 09:10:50;;;;;;;54.95;21.05;;;;;;;6.66;100.00;97456.09;5040807;28;20033;-85
2022/12/08 09:13:16;;;;;;;59.00;21.27;;;;;;;7.00;100.00;97480.13;5043689;28;20024;-84
2022/12/08 09:15:42;;;;;;;82.20;34.83;;;;;;;7.04;100.00;97439.13;5038864;28;20132;-85
2022/12/08 09:18:07;;;;;;;70.30;27.67;;;;;;;7.30;100.00;97448.47;5044436;28;20032;-86
2022/12/08 09:20:34;;;;;;;51.60;20.75;;;;;;;7.50;100.00;97432.38;5041900;28;20086;-85
2022/12/08 09:23:00;;;;;;;50.92;19.27;;;;;;;7.36;100.00;97405.59;5055902;28;20515;-86
2022/12/08 09:25:27;;;;;;;48.15;20.50;;;;;;;7.62;100.00;97438.84;5067213;28;20037;-85
2022/12/08 09:27:54;;;;;;;120.80;44.85;;;;;;;7.72;100.00;97437.41;5042725;28;20059;-86
2022/12/08 09:30:19;;;;;;;85.60;33.85;;;;;;;7.58;100.00;97382.25;5051793;28;20078;-86
2022/12/08 09:32:45;;;;;;;72.15;27.92;;;;;;;8.00;100.00;97421.69;5040361;28;20111;-85
2022/12/08 09:35:11;;;;;;;68.13;25.05;;;;;;;8.21;100.00;97398.38;5037670;28;20036;-86
2022/12/08 09:37:36;;;;;;;59.22;23.08;;;;;;;8.16;100.00;97363.13;5047587;28;20433;-86
2022/12/08 09:40:04;;;;;;;70.85;28.58;;;;;;;8.58;100.00;97386.56;5061347;28;20013;-86
2022/12/08 09:42:42;;;;;;;60.42;25.77;;;;;;;8.73;100.00;97368.84;5042169;28;20029;-86
2022/12/08 09:45:11;;;;;;;86.18;25.17;;;;;;;8.36;100.00;97327.41;5065787;28;20057;-87
2022/12/08 09:47:45;;;;;;;63.50;25.05;;;;;;;8.53;100.00;97346.84;5045033;28;20074;-84
2022/12/08 09:50:34;;;;;;;61.97;25.50;;;;;;;8.86;100.00;97343.19;5053640;28;20532;-86
2022/12/08 09:53:00;;;;;;;66.05;26.15;;;;;;;9.28;100.00;97348.63;5054439;28;20061;-86
2022/12/08 09:55:42;;;;;;;69.05;26.90;;;;;;;10.86;100.00;97353.69;5067285;28;20031;-86
2022/12/08 09:58:20;;;;;;;61.45;24.27;;;;;;;11.93;100.00;97294.47;5036015;28;20036;-86
2022/12/08 10:00:46;;;;;;;58.72;24.48;;;;;;;12.01;100.00;97269.81;5030734;28;20525;-86
2022/12/08 10:03:12;;;;;;;59.70;25.75;;;;;;;11.14;100.00;97218.84;5056860;28;20028;-86
2022/12/08 10:05:43;;;;;;;65.63;25.60;;;;;;;11.19;100.00;97243.50;5058617;28;20036;-88
2022/12/08 10:08:33;;;;;;;53.80;24.23;;;;;;;11.63;100.00;97204.72;5072539;28;20021;-84
2022/12/08 10:11:08;;;;;;;56.40;25.50;;;;;;;12.85;98.35;97216.16;5053699;28;20036;-85
2022/12/08 10:13:38;;;;;;;71.05;29.45;;;;;;;13.67;90.52;97201.63;5057260;28;20029;-84
2022/12/08 10:16:25;;;;;;;121.57;45.88;;;;;;;15.22;81.56;97206.59;5048758;28;20047;-80
2022/12/08 10:18:56;;;;;;;63.47;27.77;;;;;;;15.78;75.59;97180.06;5053151;28;20036;-85
2022/12/08 10:21:24;;;;;;;60.45;28.02;;;;;;;16.15;72.28;97164.16;5038346;28;20127;-85
2022/12/08 10:23:54;;;;;;;66.43;29.55;;;;;;;16.13;71.47;97145.41;5040377;28;20033;-85
2022/12/08 10:26:20;;;;;;;64.13;28.10;;;;;;;16.17;70.21;97133.34;5054875;28;20029;-86
2022/12/08 10:28:47;;;;;;;63.28;28.65;;;;;;;15.55;72.22;97106.63;5039822;28;20135;-85
2022/12/08 10:31:18;;;;;;;69.53;31.40;;;;;;;15.32;73.65;97101.53;5041217;28;20091;-87
2022/12/08 10:33:44;;;;;;;64.50;29.95;;;;;;;14.87;75.54;97087.53;5043392;28;20025;-85
2022/12/08 10:36:10;;;;;;;71.28;33.72;;;;;;;14.73;76.64;97095.97;5038467;28;20079;-85
2022/12/08 10:38:37;;;;;;;74.70;34.17;;;;;;;14.53;78.42;97098.50;5059224;28;20025;-86
2022/12/08 10:41:12;;;;;;;76.70;32.38;;;;;;;13.75;82.26;97091.69;5024910;28;20131;-85
2022/12/08 10:43:42;;;;;;;68.22;31.70;;;;;;;14.11;82.54;97110.16;5042131;28;20088;-85
2022/12/08 10:46:28;;;;;;;76.85;35.20;;;;;;;15.59;75.80;97116.16;5061207;28;20032;-86
2022/12/08 10:49:03;;;;;;;82.78;33.97;;;;;;;16.91;69.31;97106.66;5060584;28;20066;-86
2022/12/08 10:51:35;;;;;;;75.07;34.85;;;;;;;17.99;63.61;97101.56;5071773;28;20086;-86
2022/12/08 10:54:02;;;;;;;78.93;35.78;;;;;;;18.55;59.71;97058.84;5050039;28;20025;-87
2022/12/08 10:56:29;;;;;;;78.63;39.28;;;;;;;18.30;59.09;97052.31;5061328;28;20419;-84
2022/12/08 10:59:17;;;;;;;87.20;39.05;;;;;;;17.48;61.36;97021.78;5059009;28;20485;-85
2022/12/08 11:01:47;;;;;;;80.25;36.80;;;;;;;17.42;61.71;97038.63;5049438;28;20122;-86
2022/12/08 11:04:19;;;;;;;69.60;35.60;;;;;;;16.74;63.38;96994.78;5062938;28;20092;-85
2022/12/08 11:06:45;;;;;;;96.38;38.60;;;;;;;16.34;65.53;96986.03;5045726;28;20026;-86
2022/12/08 11:09:14;;;;;;;85.70;41.38;;;;;;;16.35;66.83;97014.72;5044295;28;20033;-87
2022/12/08 11:11:50;;;;;;;96.63;42.83;;;;;;;16.48;66.73;97019.84;5058117;28;20036;-86
2022/12/08 11:14:46;;;;;;;69.85;34.38;;;;;;;16.91;64.92;96989.63;5060595;28;20040;-85
2022/12/08 11:17:24;;;;;;;58.70;26.98;;;;;;;17.41;63.69;97004.47;5080313;28;20043;-87
2022/12/08 11:19:59;;;;;;;71.45;32.17;;;;;;;18.74;57.93;96990.06;5053128;28;20044;-86
2022/12/08 11:22:32;;;;;;;81.40;36.17;;;;;;;17.92;58.90;96974.13;5052028;28;20036;-85
2022/12/08 11:25:10;;;;;;;81.18;40.05;;;;;;;16.95;63.75;96985.63;5046507;28;20124;-85
2022/12/08 11:27:43;;;;;;;89.82;39.33;;;;;;;17.57;62.28;96983.06;5068186;28;20016;-85